createdAt,value
2023-04-22T00:00:25.679Z,100167.44
2023-04-22T00:01:27.201Z,100166.88
2023-04-22T00:02:29.741Z,100160.91
2023-04-22T00:03:32.913Z,100158.31
2023-04-22T00:04:37.261Z,100162.28
2023-04-22T00:05:41.811Z,100161.59
2023-04-22T00:06:45.476Z,100161.25
2023-04-22T00:07:47.108Z,100160.25
2023-04-22T00:08:49.690Z,100160.16
2023-04-22T00:09:51.196Z,100154.19
2023-04-22T00:10:53.701Z,100152.34
2023-04-22T00:11:55.223Z,100147.84
2023-04-22T00:12:57.663Z,100143.34
2023-04-22T00:13:59.223Z,100146.97
2023-04-22T00:15:02.153Z,100142.88
2023-04-22T00:16:04.513Z,100146.56
2023-04-22T00:17:07.747Z,100149.91
2023-04-22T00:18:14.261Z,100149.72
2023-04-22T00:19:17.126Z,100141.94
2023-04-22T00:20:21.389Z,100144.78
2023-04-22T00:21:25.224Z,100142.47
2023-04-22T00:22:26.947Z,100144.78
2023-04-22T00:23:29.426Z,100139.81
2023-04-22T00:24:31.065Z,100134.53
2023-04-22T00:25:34.472Z,100136.75
2023-04-22T00:26:36.051Z,100138.50
2023-04-22T00:27:38.565Z,100137.19
2023-04-22T00:28:40.233Z,100129.16
2023-04-22T00:29:42.661Z,100138.22
2023-04-22T00:30:44.227Z,100138.47
2023-04-22T00:31:46.839Z,100131.19
2023-04-22T00:32:50.603Z,100132.94
2023-04-22T00:33:53.732Z,100130.38
2023-04-22T00:34:55.985Z,100127.59
2023-04-22T00:35:58.652Z,100132.81
2023-04-22T00:37:01.930Z,100132.41
2023-04-22T00:38:04.401Z,100130.69
2023-04-22T00:39:06.352Z,100130.69
2023-04-22T00:40:10.367Z,100126.84
2023-04-22T00:41:12.414Z,100125.75
2023-04-22T00:42:15.157Z,100127.91
2023-04-22T00:43:17.523Z,100126.81
2023-04-22T00:44:20.160Z,100122.97
2023-04-22T00:45:21.927Z,100122.94
2023-04-22T00:46:24.837Z,100123.97
2023-04-22T00:47:27.860Z,100130.47
2023-04-22T00:48:30.769Z,100133.50
2023-04-22T00:49:32.524Z,100125.28
2023-04-22T00:50:35.348Z,100128.53
2023-04-22T00:51:37.090Z,100130.06
2023-04-22T00:52:40.976Z,100122.75
2023-04-22T00:53:43.239Z,100125.16
2023-04-22T00:54:46.788Z,100126.59
2023-04-22T00:55:48.563Z,100128.38
2023-04-22T00:56:51.357Z,100118.72
2023-04-22T00:57:55.427Z,100121.59
2023-04-22T00:58:58.932Z,100121.38
2023-04-22T01:00:00.620Z,100116.09
2023-04-22T01:01:03.474Z,100111.81
2023-04-22T01:02:05.515Z,100113.34
2023-04-22T01:03:08.466Z,100118.75
2023-04-22T01:04:12.898Z,100118.66
2023-04-22T01:05:15.476Z,100111.53
2023-04-22T01:06:19.130Z,100108.09
2023-04-22T01:07:21.690Z,100114.53
2023-04-22T01:08:28.681Z,100116.47
2023-04-22T01:09:31.588Z,100111.56
2023-04-22T01:10:33.118Z,100114.34
2023-04-22T01:11:36.722Z,100116.06
2023-04-22T01:12:38.351Z,100116.53
2023-04-22T01:13:40.931Z,100116.75
2023-04-22T01:14:42.907Z,100112.97
2023-04-22T01:15:45.479Z,100116.22
2023-04-22T01:16:47.066Z,100117.88
2023-04-22T01:17:49.887Z,100121.66
2023-04-22T01:18:52.944Z,100116.97
2023-04-22T01:19:55.680Z,100118.59
2023-04-22T01:20:57.519Z,100115.72
2023-04-22T01:22:02.448Z,100111.50
2023-04-22T01:23:10.116Z,100119.88
2023-04-22T01:24:14.170Z,100119.66
2023-04-22T01:25:16.042Z,100117.81
2023-04-22T01:26:18.517Z,100115.22
2023-04-22T01:27:21.493Z,100119.78
2023-04-22T01:28:24.530Z,100106.75
2023-04-22T01:29:26.531Z,100103.69
2023-04-22T01:30:29.232Z,100111.88
2023-04-22T01:31:31.323Z,100111.03
2023-04-22T01:32:34.488Z,100106.75
2023-04-22T01:33:36.127Z,100111.63
2023-04-22T01:34:38.654Z,100110.25
2023-04-22T01:35:41.241Z,100119.75
2023-04-22T01:36:44.891Z,100109.63
2023-04-22T01:37:46.512Z,100112.25
2023-04-22T01:38:49.183Z,100114.16
2023-04-22T01:39:52.112Z,100110.94
2023-04-22T01:40:54.877Z,100115.09
2023-04-22T01:41:56.983Z,100111.59
2023-04-22T01:43:00.429Z,100115.44
2023-04-22T01:44:03.784Z,100112.75
2023-04-22T01:45:07.663Z,100115.75
2023-04-22T01:46:09.896Z,100115.53
2023-04-22T01:47:13.364Z,100118.47
2023-04-22T01:48:14.931Z,100112.72
2023-04-22T01:49:18.086Z,100121.88
2023-04-22T01:50:20.233Z,100118.28
2023-04-22T01:51:23.524Z,100107.63
2023-04-22T01:52:26.950Z,100115.66
2023-04-22T01:53:29.545Z,100118.38
2023-04-22T01:54:31.267Z,100117.09
2023-04-22T01:55:36.117Z,100120.09
2023-04-22T01:56:38.875Z,100126.41
2023-04-22T01:57:41.575Z,100120.50
2023-04-22T01:58:44.079Z,100126.19
2023-04-22T01:59:46.588Z,100128.16
2023-04-22T02:00:48.065Z,100120.09
2023-04-22T02:01:50.777Z,100127.63
2023-04-22T02:02:52.409Z,100125.72
2023-04-22T02:03:55.145Z,100126.75
2023-04-22T02:04:57.045Z,100115.94
2023-04-22T02:05:59.562Z,100124.97
2023-04-22T02:07:01.170Z,100119.88
2023-04-22T02:08:03.671Z,100125.81
2023-04-22T02:09:05.458Z,100125.44
2023-04-22T02:10:09.418Z,100121.66
2023-04-22T02:11:12.364Z,100121.13
2023-04-22T02:12:14.851Z,100120.22
2023-04-22T02:13:16.385Z,100128.13
2023-04-22T02:14:18.807Z,100124.00
2023-04-22T02:15:20.568Z,100119.38
2023-04-22T02:16:23.364Z,100116.19
2023-04-22T02:17:24.981Z,100120.94
2023-04-22T02:18:27.751Z,100119.25
2023-04-22T02:19:29.410Z,100117.31
2023-04-22T02:20:31.922Z,100117.28
2023-04-22T02:21:33.760Z,100118.88
2023-04-22T02:22:36.863Z,100124.25
2023-04-22T02:23:39.439Z,100116.09
2023-04-22T02:24:43.054Z,100117.88
2023-04-22T02:25:48.683Z,100121.00
2023-04-22T02:26:52.438Z,100120.91
2023-04-22T02:27:53.986Z,100116.50
2023-04-22T02:28:56.439Z,100112.47
2023-04-22T02:29:57.960Z,100111.72
2023-04-22T02:31:00.569Z,100109.25
2023-04-22T02:32:02.393Z,100119.06
2023-04-22T02:33:04.932Z,100110.94
2023-04-22T02:34:06.513Z,100113.06
2023-04-22T02:35:09.789Z,100113.59
2023-04-22T02:36:11.340Z,100117.28
2023-04-22T02:37:13.930Z,100117.63
2023-04-22T02:38:15.701Z,100122.53
2023-04-22T02:39:18.212Z,100121.41
2023-04-22T02:40:20.151Z,100118.47
2023-04-22T02:41:22.642Z,100126.19
2023-04-22T02:42:25.491Z,100126.66
2023-04-22T02:43:28.050Z,100115.91
2023-04-22T02:44:29.542Z,100118.78
2023-04-22T02:45:32.053Z,100116.28
2023-04-22T02:46:34.242Z,100121.31
2023-04-22T02:47:36.819Z,100121.78
2023-04-22T02:48:38.365Z,100117.63
2023-04-22T02:49:41.369Z,100111.84
2023-04-22T02:50:43.354Z,100107.03
2023-04-22T02:51:45.969Z,100118.97
2023-04-22T02:52:47.523Z,100116.09
2023-04-22T02:53:50.117Z,100112.00
2023-04-22T02:54:51.701Z,100120.41
2023-04-22T02:55:55.709Z,100115.22
2023-04-22T02:56:58.015Z,100117.63
2023-04-22T02:58:01.864Z,100116.53
2023-04-22T02:59:03.414Z,100111.34
2023-04-22T03:00:08.010Z,100112.56
2023-04-22T03:01:09.604Z,100114.50
2023-04-22T03:02:12.272Z,100115.47
2023-04-22T03:03:14.417Z,100113.00
2023-04-22T03:04:17.224Z,100111.81
2023-04-22T03:05:19.347Z,100117.50
2023-04-22T03:06:21.842Z,100118.72
2023-04-22T03:07:23.458Z,100110.63
2023-04-22T03:08:26.538Z,100111.22
2023-04-22T03:09:28.060Z,100110.56
2023-04-22T03:10:30.540Z,100106.47
2023-04-22T03:11:32.062Z,100108.13
2023-04-22T03:12:34.634Z,100116.41
2023-04-22T03:13:37.582Z,100107.31
2023-04-22T03:14:40.016Z,100115.50
2023-04-22T03:15:41.833Z,100113.53
2023-04-22T03:16:44.396Z,100111.03
2023-04-22T03:17:46.057Z,100118.28
2023-04-22T03:18:48.612Z,100112.31
2023-04-22T03:19:50.320Z,100111.38
2023-04-22T03:20:52.785Z,100113.25
2023-04-22T03:21:54.350Z,100111.28
2023-04-22T03:22:57.219Z,100113.88
2023-04-22T03:23:58.952Z,100110.47
2023-04-22T03:25:01.996Z,100107.00
2023-04-22T03:26:03.655Z,100103.56
2023-04-22T03:27:06.702Z,100104.28
2023-04-22T03:28:08.242Z,100098.94
2023-04-22T03:29:12.093Z,100096.19
2023-04-22T03:30:13.859Z,100107.91
2023-04-22T03:31:16.350Z,100101.59
2023-04-22T03:32:18.494Z,100097.84
2023-04-22T03:33:21.239Z,100094.84
2023-04-22T03:34:23.179Z,100092.84
2023-04-22T03:35:25.924Z,100095.94
2023-04-22T03:36:28.686Z,100100.47
2023-04-22T03:37:30.321Z,100106.53
2023-04-22T03:38:32.803Z,100097.38
2023-04-22T03:39:34.377Z,100095.25
2023-04-22T03:40:37.216Z,100106.53
2023-04-22T03:41:39.043Z,100100.06
2023-04-22T03:42:41.536Z,100098.53
2023-04-22T03:43:43.025Z,100097.72
2023-04-22T03:44:46.821Z,100095.31
2023-04-22T03:45:49.139Z,100096.88
2023-04-22T03:46:51.704Z,100090.91
2023-04-22T03:47:53.874Z,100091.41
2023-04-22T03:48:56.402Z,100094.81
2023-04-22T03:49:58.003Z,100087.03
2023-04-22T03:51:00.682Z,100093.56
2023-04-22T03:52:02.524Z,100089.09
2023-04-22T03:53:05.104Z,100079.91
2023-04-22T03:54:06.910Z,100080.84
2023-04-22T03:55:10.647Z,100075.00
2023-04-22T03:56:12.181Z,100081.31
2023-04-22T03:57:14.736Z,100075.78
2023-04-22T03:58:16.467Z,100071.94
2023-04-22T03:59:19.474Z,100071.78
2023-04-22T04:00:22.451Z,100076.41
2023-04-22T04:01:24.924Z,100079.44
2023-04-22T04:02:26.640Z,100079.81
2023-04-22T04:03:31.021Z,100080.13
2023-04-22T04:04:33.442Z,100077.97
2023-04-22T04:05:36.592Z,100089.13
2023-04-22T04:06:38.422Z,100089.13
2023-04-22T04:07:41.039Z,100087.50
2023-04-22T04:08:42.578Z,100094.56
2023-04-22T04:09:45.109Z,100098.38
2023-04-22T04:10:46.615Z,100096.22
2023-04-22T04:11:49.112Z,100102.97
2023-04-22T04:12:50.656Z,100103.53
2023-04-22T04:13:53.157Z,100103.81
2023-04-22T04:14:54.713Z,100101.91
2023-04-22T04:16:00.183Z,100106.78
2023-04-22T04:17:03.601Z,100106.75
2023-04-22T04:18:06.270Z,100109.13
2023-04-22T04:19:08.939Z,100105.47
2023-04-22T04:20:11.203Z,100111.66
2023-04-22T04:21:13.715Z,100103.16
2023-04-22T04:22:15.222Z,100100.88
2023-04-22T04:23:18.382Z,100108.13
2023-04-22T04:24:19.952Z,100097.47
2023-04-22T04:25:22.594Z,100099.94
2023-04-22T04:26:25.173Z,100106.91
2023-04-22T04:27:27.920Z,100103.47
2023-04-22T04:28:32.341Z,100103.63
2023-04-22T04:29:34.928Z,100103.44
2023-04-22T04:30:37.114Z,100100.78
2023-04-22T04:31:40.981Z,100094.28
2023-04-22T04:32:43.050Z,100096.47
2023-04-22T04:33:46.629Z,100098.94
2023-04-22T04:34:48.301Z,100095.34
2023-04-22T04:35:51.517Z,100094.81
2023-04-22T04:36:53.058Z,100094.03
2023-04-22T04:37:55.525Z,100093.78
2023-04-22T04:38:57.019Z,100095.41
2023-04-22T04:40:00.303Z,100092.66
2023-04-22T04:41:02.390Z,100090.22
2023-04-22T04:42:05.035Z,100094.88
2023-04-22T04:43:08.619Z,100090.50
2023-04-22T04:44:11.239Z,100093.47
2023-04-22T04:45:12.763Z,100088.84
2023-04-22T04:46:16.625Z,100086.69
2023-04-22T04:47:20.102Z,100084.75
2023-04-22T04:48:25.099Z,100085.09
2023-04-22T04:49:26.896Z,100092.41
2023-04-22T04:50:30.390Z,100095.09
2023-04-22T04:51:32.533Z,100095.84
2023-04-22T04:52:35.078Z,100094.78
2023-04-22T04:53:36.733Z,100093.69
2023-04-22T04:54:39.245Z,100094.16
2023-04-22T04:55:40.821Z,100098.00
2023-04-22T04:56:43.477Z,100098.06
2023-04-22T04:57:45.774Z,100104.09
2023-04-22T04:58:48.312Z,100110.59
2023-04-22T04:59:49.870Z,100109.19
2023-04-22T05:00:52.676Z,100102.41
2023-04-22T05:01:54.829Z,100108.06
2023-04-22T05:02:58.902Z,100105.19
2023-04-22T05:04:00.796Z,100107.56
2023-04-22T05:05:03.709Z,100111.41
2023-04-22T05:06:06.015Z,100114.94
2023-04-22T05:07:08.714Z,100107.88
2023-04-22T05:08:11.245Z,100114.13
2023-04-22T05:09:12.830Z,100111.91
2023-04-22T05:10:15.708Z,100114.28
2023-04-22T05:11:17.269Z,100115.38
2023-04-22T05:12:20.028Z,100113.72
2023-04-22T05:13:22.502Z,100115.28
2023-04-22T05:14:25.314Z,100110.66
2023-04-22T05:15:26.913Z,100112.50
2023-04-22T05:16:29.980Z,100104.63
2023-04-22T05:17:31.936Z,100113.16
2023-04-22T05:18:35.886Z,100114.94
2023-04-22T05:19:37.526Z,100113.84
2023-04-22T05:20:40.310Z,100111.16
2023-04-22T05:21:41.813Z,100114.91
2023-04-22T05:22:45.919Z,100106.75
2023-04-22T05:23:47.599Z,100113.59
2023-04-22T05:24:50.139Z,100113.59
2023-04-22T05:25:53.454Z,100112.75
2023-04-22T05:26:57.391Z,100112.97
2023-04-22T05:27:58.921Z,100110.28
2023-04-22T05:29:01.406Z,100113.44
2023-04-22T05:30:03.364Z,100115.81
2023-04-22T05:31:06.775Z,100110.91
2023-04-22T05:32:09.522Z,100101.00
2023-04-22T05:33:11.204Z,100108.06
2023-04-22T05:34:15.173Z,100108.22
2023-04-22T05:35:16.851Z,100107.06
2023-04-22T05:36:19.381Z,100107.50
2023-04-22T05:37:21.590Z,100109.56
2023-04-22T05:38:24.077Z,100104.81
2023-04-22T05:39:26.193Z,100105.31
2023-04-22T05:40:28.664Z,100106.97
2023-04-22T05:41:30.270Z,100103.63
2023-04-22T05:42:32.754Z,100106.66
2023-04-22T05:43:34.341Z,100113.09
2023-04-22T05:44:36.765Z,100108.91
2023-04-22T05:45:38.415Z,100103.72
2023-04-22T05:46:40.944Z,100110.69
2023-04-22T05:47:42.516Z,100109.84
2023-04-22T05:48:45.011Z,100110.75
2023-04-22T05:49:48.111Z,100113.94
2023-04-22T05:50:50.550Z,100104.91
2023-04-22T05:51:52.036Z,100104.59
2023-04-22T05:52:56.597Z,100115.31
2023-04-22T05:53:58.178Z,100107.06
2023-04-22T05:55:00.686Z,100105.66
2023-04-22T05:56:02.535Z,100106.19
2023-04-22T05:57:05.413Z,100107.00
2023-04-22T05:58:07.061Z,100111.25
2023-04-22T05:59:09.529Z,100104.72
2023-04-22T06:00:12.294Z,100104.34
2023-04-22T06:01:14.902Z,100106.84
2023-04-22T06:02:16.559Z,100105.34
2023-04-22T06:03:19.236Z,100103.59
2023-04-22T06:04:21.133Z,100109.22
2023-04-22T06:05:25.328Z,100107.13
2023-04-22T06:06:27.554Z,100105.78
2023-04-22T06:07:30.322Z,100107.94
2023-04-22T06:08:32.160Z,100107.59
2023-04-22T06:09:34.686Z,100105.00
2023-04-22T06:10:36.235Z,100107.44
2023-04-22T06:11:38.734Z,100106.34
2023-04-22T06:12:40.746Z,100109.25
2023-04-22T06:13:43.203Z,100109.47
2023-04-22T06:14:44.725Z,100104.09
2023-04-22T06:15:47.215Z,100100.78
2023-04-22T06:16:50.371Z,100110.03
2023-04-22T06:17:53.145Z,100109.50
2023-04-22T06:18:54.685Z,100109.56
2023-04-22T06:19:57.428Z,100108.97
2023-04-22T06:21:00.249Z,100113.41
2023-04-22T06:22:03.060Z,100106.53
2023-04-22T06:23:05.340Z,100114.50
2023-04-22T06:24:09.061Z,100106.00
2023-04-22T06:25:10.643Z,100108.38
2023-04-22T06:26:13.485Z,100103.88
2023-04-22T06:27:15.131Z,100102.00
2023-04-22T06:28:17.711Z,100098.47
2023-04-22T06:29:19.228Z,100100.03
2023-04-22T06:30:22.062Z,100101.84
2023-04-22T06:31:23.838Z,100099.84
2023-04-22T06:32:26.329Z,100102.91
2023-04-22T06:33:28.360Z,100100.59
2023-04-22T06:34:30.841Z,100095.84
2023-04-22T06:35:32.480Z,100099.06
2023-04-22T06:36:38.617Z,100103.56
2023-04-22T06:37:40.213Z,100094.03
2023-04-22T06:38:42.644Z,100101.94
2023-04-22T06:39:44.213Z,100101.31
2023-04-22T06:40:46.700Z,100099.69
2023-04-22T06:41:49.131Z,100101.56
2023-04-22T06:42:51.769Z,100096.94
2023-04-22T06:43:53.273Z,100104.25
2023-04-22T06:44:55.815Z,100105.25
2023-04-22T06:45:57.329Z,100108.16
2023-04-22T06:46:59.937Z,100111.13
2023-04-22T06:48:01.557Z,100107.25
2023-04-22T06:49:04.123Z,100102.06
2023-04-22T06:50:08.235Z,100103.78
2023-04-22T06:51:09.845Z,100103.53
2023-04-22T06:52:13.950Z,100102.53
2023-04-22T06:53:15.711Z,100098.41
2023-04-22T06:54:18.308Z,100102.59
2023-04-22T06:55:20.170Z,100097.88
2023-04-22T06:56:22.618Z,100100.63
2023-04-22T06:57:24.242Z,100098.78
2023-04-22T06:58:26.771Z,100103.78
2023-04-22T06:59:28.300Z,100106.38
2023-04-22T07:00:30.778Z,100099.91
2023-04-22T07:01:35.035Z,100103.25
2023-04-22T07:02:37.825Z,100102.56
2023-04-22T07:03:39.572Z,100098.72
2023-04-22T07:04:42.236Z,100103.59
2023-04-22T07:05:44.209Z,100104.22
2023-04-22T07:06:46.904Z,100098.19
2023-04-22T07:07:49.805Z,100106.44
2023-04-22T07:08:52.357Z,100104.91
2023-04-22T07:09:53.990Z,100102.53
2023-04-22T07:11:59.407Z,100102.81
2023-04-22T07:13:02.120Z,100102.00
2023-04-22T07:14:03.773Z,100101.44
2023-04-22T07:15:07.537Z,100104.78
2023-04-22T07:16:09.199Z,100106.88
2023-04-22T07:17:12.358Z,100102.69
2023-04-22T07:18:13.931Z,100105.59
2023-04-22T07:19:25.470Z,100106.19
2023-04-22T07:20:47.097Z,100095.94
2023-04-22T07:22:09.732Z,100092.47
2023-04-22T07:23:33.695Z,100091.84
2023-04-22T07:24:56.347Z,100088.16
2023-04-22T07:26:19.102Z,100093.47
2023-04-22T07:27:41.594Z,100094.47
2023-04-22T07:29:04.099Z,100093.94
2023-04-22T07:30:26.815Z,100091.84
2023-04-22T07:31:49.323Z,100079.91
2023-04-22T07:33:10.969Z,100084.19
2023-04-22T07:34:33.468Z,100072.31
2023-04-22T07:35:55.913Z,100091.59
2023-04-22T07:37:18.378Z,100085.91
2023-04-22T07:38:42.270Z,100085.59
2023-04-22T07:40:05.924Z,100088.63
2023-04-22T07:41:28.833Z,100080.53
2023-04-22T07:42:50.374Z,100082.34
2023-04-22T07:44:16.434Z,100082.31
2023-04-22T07:45:39.250Z,100079.25
2023-04-22T07:47:01.036Z,100078.63
2023-04-22T07:48:24.002Z,100077.25
2023-04-22T07:49:46.639Z,100079.16
2023-04-22T07:51:16.891Z,100079.34
2023-04-22T07:52:39.403Z,100080.00
2023-04-22T07:54:02.313Z,100066.91
2023-04-22T07:55:25.191Z,100063.97
2023-04-22T07:56:46.735Z,100066.88
2023-04-22T07:58:09.303Z,100067.88
2023-04-22T07:59:30.848Z,100062.19
2023-04-22T08:00:53.396Z,100068.97
2023-04-22T08:02:16.137Z,100065.34
2023-04-22T08:03:38.848Z,100060.13
2023-04-22T08:05:01.811Z,100064.81
2023-04-22T08:06:24.647Z,100057.84
2023-04-22T08:07:47.175Z,100055.28
2023-04-22T08:09:11.250Z,100064.75
2023-04-22T08:10:33.309Z,100065.06
2023-04-22T08:11:56.630Z,100060.75
2023-04-22T08:13:19.107Z,100059.31
2023-04-22T08:14:41.930Z,100061.69
2023-04-22T08:16:05.296Z,100052.53
2023-04-22T08:17:28.015Z,100062.47
2023-04-22T08:18:52.322Z,100062.13
2023-04-22T08:20:15.636Z,100062.41
2023-04-22T08:21:38.524Z,100059.16
2023-04-22T08:23:01.155Z,100063.19
2023-04-22T08:24:24.217Z,100057.94
2023-04-22T08:25:46.765Z,100058.00
2023-04-22T08:27:08.424Z,100061.53
2023-04-22T08:28:30.954Z,100060.13
2023-04-22T08:29:53.553Z,100067.09
2023-04-22T08:31:16.159Z,100069.16
2023-04-22T08:32:38.700Z,100066.06
2023-04-22T08:34:01.485Z,100051.88
2023-04-22T08:35:24.230Z,100056.63
2023-04-22T08:36:45.827Z,100061.59
2023-04-22T08:38:08.368Z,100060.09
2023-04-22T08:39:32.591Z,100059.75
2023-04-22T08:40:57.932Z,100060.44
2023-04-22T08:42:19.894Z,100055.53
2023-04-22T08:43:43.640Z,100062.53
2023-04-22T08:45:07.246Z,100059.88
2023-04-22T08:46:32.264Z,100069.56
2023-04-22T08:47:55.575Z,100067.31
2023-04-22T08:49:18.859Z,100060.47
2023-04-22T08:50:42.049Z,100061.34
2023-04-22T08:52:04.663Z,100059.47
2023-04-22T08:53:28.975Z,100058.56
2023-04-22T08:54:53.540Z,100058.06
2023-04-22T08:56:16.623Z,100053.38
2023-04-22T08:57:39.992Z,100044.75
2023-04-22T08:59:02.862Z,100049.88
2023-04-22T09:00:25.532Z,100047.88
2023-04-22T09:01:52.053Z,100053.63
2023-04-22T09:03:16.494Z,100052.03
2023-04-22T09:04:38.268Z,100048.31
2023-04-22T09:06:04.372Z,100049.44
2023-04-22T09:07:29.540Z,100057.38
2023-04-22T09:08:53.146Z,100049.13
2023-04-22T09:10:17.246Z,100042.72
2023-04-22T09:11:38.829Z,100052.06
2023-04-22T09:13:02.184Z,100045.84
2023-04-22T09:14:26.284Z,100049.34
2023-04-22T09:15:47.888Z,100044.75
2023-04-22T09:17:10.761Z,100042.66
2023-04-22T09:18:40.999Z,100043.88
2023-04-22T09:20:06.155Z,100039.97
2023-04-22T09:21:29.352Z,100040.91
2023-04-22T09:22:50.901Z,100032.03
2023-04-22T09:24:13.700Z,100029.34
2023-04-22T09:25:39.334Z,100032.88
2023-04-22T09:27:03.762Z,100040.00
2023-04-22T09:28:26.321Z,100029.22
2023-04-22T09:29:48.950Z,100025.59
2023-04-22T09:31:15.674Z,100025.72
2023-04-22T09:32:38.242Z,100027.56
2023-04-22T09:34:01.732Z,100030.44
2023-04-22T09:35:28.939Z,100018.94
2023-04-22T09:36:52.139Z,100027.19
2023-04-22T09:38:14.683Z,100016.69
2023-04-22T09:39:36.343Z,100018.16
2023-04-22T09:41:00.393Z,100018.84
2023-04-22T09:42:25.889Z,100020.34
2023-04-22T09:43:47.425Z,100014.84
2023-04-22T09:45:11.281Z,100017.09
2023-04-22T09:46:34.869Z,100019.06
2023-04-22T09:48:01.407Z,100017.63
2023-04-22T09:49:26.692Z,100020.63
2023-04-22T09:50:50.934Z,100026.22
2023-04-22T09:52:21.660Z,100013.34
2023-04-22T09:53:44.301Z,100019.78
2023-04-22T09:55:10.401Z,100019.13
2023-04-22T09:56:49.345Z,100025.22
2023-04-22T09:58:13.821Z,100012.72
2023-04-22T09:59:35.674Z,100018.13
2023-04-22T10:00:59.970Z,100020.16
2023-04-22T10:02:30.284Z,100011.28
2023-04-22T10:03:51.951Z,100013.44
2023-04-22T10:05:14.693Z,100012.00
2023-04-22T10:06:37.339Z,100003.97
2023-04-22T10:08:00.187Z,100005.63
2023-04-22T10:09:25.033Z,100001.97
2023-04-22T10:10:48.111Z,100006.19
2023-04-22T10:12:11.276Z,100002.22
2023-04-22T10:13:33.846Z,99998.59
2023-04-22T10:14:56.355Z,100002.34
2023-04-22T10:16:20.892Z,100004.66
2023-04-22T10:17:45.726Z,100002.34
2023-04-22T10:19:13.676Z,99989.72
2023-04-22T10:20:38.042Z,100001.31
2023-04-22T10:22:03.369Z,99996.47
2023-04-22T10:23:26.309Z,99993.31
2023-04-22T10:24:50.170Z,99990.94
2023-04-22T10:26:12.727Z,99988.50
2023-04-22T10:27:36.700Z,99984.59
2023-04-22T10:28:58.269Z,99989.00
2023-04-22T10:30:28.905Z,99979.13
2023-04-22T10:31:55.572Z,99979.66
2023-04-22T10:33:37.156Z,99974.91
2023-04-22T10:35:14.535Z,99976.72
2023-04-22T10:36:53.878Z,99975.69
2023-04-22T10:38:17.582Z,99979.94
2023-04-22T10:39:42.020Z,99980.94
2023-04-22T10:41:04.362Z,99976.53
2023-04-22T10:42:29.592Z,99971.88
2023-04-22T10:43:59.633Z,99971.53
2023-04-22T10:45:26.535Z,99968.81
2023-04-22T10:47:01.015Z,99968.53
2023-04-22T10:48:50.689Z,99971.22
2023-04-22T10:50:17.485Z,99968.19
2023-04-22T10:51:40.810Z,99961.88
2023-04-22T10:53:36.695Z,99971.84
2023-04-22T10:54:59.889Z,99967.88
2023-04-22T10:56:22.353Z,99962.72
2023-04-22T10:57:47.059Z,99953.84
2023-04-22T10:59:17.004Z,99967.47
2023-04-22T11:00:53.185Z,99959.94
2023-04-22T11:02:16.773Z,99958.75
2023-04-22T11:03:39.783Z,99956.66
2023-04-22T11:05:20.415Z,99956.34
2023-04-22T11:06:42.946Z,99946.91
2023-04-22T11:08:09.694Z,99956.94
2023-04-22T11:09:31.265Z,99961.78
2023-04-22T11:10:55.234Z,99950.38
2023-04-22T11:12:42.679Z,99949.50
2023-04-22T11:14:05.878Z,99943.31
2023-04-22T11:15:30.258Z,99943.59
2023-04-22T11:16:53.156Z,99941.06
2023-04-22T11:18:19.775Z,99938.53
2023-04-22T11:19:43.296Z,99946.16
2023-04-22T11:21:09.139Z,99948.28
2023-04-22T11:22:34.892Z,99944.31
2023-04-22T11:24:02.752Z,99939.97
2023-04-22T11:25:26.305Z,99943.53
2023-04-22T11:26:48.815Z,99939.94
2023-04-22T11:28:11.352Z,99934.84
2023-04-22T11:29:34.313Z,99941.41
2023-04-22T11:31:04.857Z,99935.31
2023-04-22T11:32:27.041Z,99936.59
2023-04-22T11:33:50.911Z,99929.53
2023-04-22T11:35:14.568Z,99932.16
2023-04-22T11:36:37.185Z,99917.06
2023-04-22T11:38:01.007Z,99928.34
2023-04-22T11:39:23.491Z,99927.53
2023-04-22T11:40:47.220Z,99925.13
2023-04-22T11:42:10.426Z,99933.13
2023-04-22T11:43:32.970Z,99927.44
2023-04-22T11:44:54.526Z,99922.63
2023-04-22T11:46:29.625Z,99915.72
2023-04-22T11:47:53.145Z,99914.81
2023-04-22T11:49:16.325Z,99922.75
2023-04-22T11:50:40.512Z,99918.31
2023-04-22T11:52:03.067Z,99908.31
2023-04-22T11:53:25.869Z,99917.91
2023-04-22T11:54:47.477Z,99903.84
2023-04-22T11:56:10.071Z,99912.38
2023-04-22T11:57:36.196Z,99916.34
2023-04-22T11:58:58.659Z,99898.84
2023-04-22T12:00:20.566Z,99901.91
2023-04-22T12:01:44.704Z,99899.50
2023-04-22T12:03:09.073Z,99895.56
2023-04-22T12:04:36.351Z,99899.28
2023-04-22T12:06:01.688Z,99906.41
2023-04-22T12:07:23.434Z,99910.81
2023-04-22T12:08:47.424Z,99912.75
2023-04-22T12:10:11.186Z,99892.34
2023-04-22T12:11:33.688Z,99907.19
2023-04-22T12:12:55.250Z,99906.38
2023-04-22T12:14:17.724Z,99899.16
2023-04-22T12:15:42.348Z,99898.81
2023-04-22T12:17:10.687Z,99887.75
2023-04-22T12:18:34.453Z,99891.50
2023-04-22T12:19:57.389Z,99887.44
2023-04-22T12:21:22.300Z,99891.53
2023-04-22T12:22:45.165Z,99892.81
2023-04-22T12:24:11.326Z,99889.72
2023-04-22T12:25:33.966Z,99886.59
2023-04-22T12:26:56.818Z,99889.59
2023-04-22T12:28:19.727Z,99880.41
2023-04-22T12:29:52.152Z,99897.44
2023-04-22T12:31:16.263Z,99882.22
2023-04-22T12:32:40.149Z,99886.56
2023-04-22T12:34:02.851Z,99882.19
2023-04-22T12:35:25.566Z,99883.06
2023-04-22T12:36:48.980Z,99889.91
2023-04-22T12:38:11.576Z,99880.38
2023-04-22T12:39:33.120Z,99886.66
2023-04-22T12:40:55.909Z,99884.00
2023-04-22T12:42:18.400Z,99869.06
2023-04-22T12:43:40.973Z,99870.44
2023-04-22T12:45:04.339Z,99874.06
2023-04-22T12:46:27.026Z,99870.44
2023-04-22T12:47:53.678Z,99863.94
2023-04-22T12:49:16.358Z,99871.72
2023-04-22T12:50:41.584Z,99877.13
2023-04-22T12:52:03.119Z,99875.63
2023-04-22T12:53:26.707Z,99875.94
2023-04-22T12:54:49.206Z,99863.97
2023-04-22T12:56:11.939Z,99868.44
2023-04-22T12:57:34.592Z,99864.78
2023-04-22T12:58:57.360Z,99864.06
2023-04-22T13:00:20.957Z,99855.69
2023-04-22T13:01:42.477Z,99859.69
2023-04-22T13:03:06.639Z,99853.25
2023-04-22T13:04:29.354Z,99857.53
2023-04-22T13:05:53.257Z,99846.66
2023-04-22T13:07:17.400Z,99857.97
2023-04-22T13:08:39.894Z,99853.38
2023-04-22T13:10:02.426Z,99847.09
2023-04-22T13:11:24.585Z,99832.88
2023-04-22T13:12:47.008Z,99824.75
2023-04-22T13:14:09.473Z,99829.97
2023-04-22T13:15:32.005Z,99831.13
2023-04-22T13:16:53.550Z,99829.34
2023-04-22T13:18:17.519Z,99840.34
2023-04-22T13:19:40.405Z,99840.09
2023-04-22T13:21:03.191Z,99829.56
2023-04-22T13:22:25.762Z,99833.72
2023-04-22T13:23:48.248Z,99836.47
2023-04-22T13:25:11.435Z,99835.66
2023-04-22T13:26:34.085Z,99831.94
2023-04-22T13:27:56.508Z,99828.38
2023-04-22T13:29:19.087Z,99820.94
2023-04-22T13:30:41.691Z,99820.00
2023-04-22T13:32:05.798Z,99816.00
2023-04-22T13:33:29.690Z,99808.59
2023-04-22T13:34:52.677Z,99809.78
2023-04-22T13:36:15.183Z,99808.19